Wednesday, January 17, 2018, 6:26 AM EST
Back to Local

KIDI, Indiana / Stewart Field

Location: Indiana, PA, United States Lat: 40.633
Local Time: 6:26 AM EST (11:26 GMT) Lon: -79.1
Time Zone: US/Eastern Elev: 1407 ft

Show me the last for .
Show Decoded

2018-01-17 06:15 METAR KIDI 171115Z AUTO 27008KT 6SM BR BKN006 OVC010 M15/M16 A3046 RMK A01 =
2018-01-17 05:55 METAR KIDI 171055Z AUTO 26006KT 6SM BR OVC009 M15/M16 A3046 RMK A01 =
2018-01-17 05:35 METAR KIDI 171035Z AUTO 27006KT 7SM OVC010 M15/M16 A3045 RMK A01 =
2018-01-17 05:15 METAR KIDI 171015Z AUTO 26006KT 8SM OVC010 M15/M16 A3045 RMK A01 =
2018-01-17 04:55 METAR KIDI 170955Z AUTO 27007KT 10SM OVC009 M15/M16 A3045 RMK A01 =
2018-01-17 04:35 METAR KIDI 170935Z AUTO 29003KT 9SM OVC010 M15/M16 A3045 RMK A01 =
2018-01-17 04:15 METAR KIDI 170915Z AUTO 27004KT 10SM OVC010 M15/M16 A3045 RMK A01 =
2018-01-17 03:55 METAR KIDI 170855Z AUTO 00000KT 10SM BKN012 OVC018 M14/M16 A3045 RMK A01 =
2018-01-17 03:35 METAR KIDI 170835Z AUTO 00000KT 10SM OVC017 M14/M16 A3045 RMK A01 =
2018-01-17 03:15 METAR KIDI 170815Z AUTO 00000KT 10SM OVC016 M14/M16 A3045 RMK A01 =
2018-01-17 02:55 METAR KIDI 170755Z AUTO 29003KT 10SM BKN014 OVC019 M14/M15 A3044 RMK A01 =
2018-01-17 02:35 METAR KIDI 170735Z AUTO VRB03KT 10SM BKN013 OVC019 M13/M15 A3044 RMK A01 =
2018-01-17 02:15 METAR KIDI 170715Z AUTO 30005KT 10SM OVC014 M12/M14 A3043 RMK A01 =
2018-01-17 01:55 METAR KIDI 170655Z AUTO 31006KT 9SM OVC014 M12/M14 A3044 RMK A01 =
2018-01-17 01:35 METAR KIDI 170635Z AUTO 00000KT 10SM OVC014 M12/M14 A3044 RMK A01 =
2018-01-17 01:15 METAR KIDI 170615Z AUTO 32005KT 8SM OVC014 M12/M14 A3044 RMK A01 =
2018-01-17 00:55 METAR KIDI 170555Z AUTO 28005KT 8SM OVC013 M12/M14 A3044 RMK A01 =
2018-01-17 00:35 METAR KIDI 170535Z AUTO VRB04KT 8SM BKN014 OVC021 M12/M14 A3044 RMK A01 =
2018-01-17 00:15 METAR KIDI 170515Z AUTO 32004KT 7SM FEW009 BKN017 OVC021 M12/M14 A3044 RMK A01 =
2018-01-16 23:55 METAR KIDI 170455Z AUTO 32003KT 10SM FEW008 SCT019 OVC031 M12/M14 A3044 RMK A01
                 =
2018-01-16 23:35 METAR KIDI 170435Z AUTO 00000KT 10SM OVC030 M11/M14 A3044 RMK A01 =
2018-01-16 23:15 METAR KIDI 170415Z AUTO 28004KT 10SM OVC026 M11/M14 A3044 RMK A01 =
2018-01-16 22:55 METAR KIDI 170355Z AUTO VRB05KT 10SM OVC026 M11/M13 A3043 RMK A01 =
2018-01-16 22:35 METAR KIDI 170335Z AUTO VRB04KT 10SM FEW013 OVC026 M11/M13 A3043 RMK A01 =
2018-01-16 22:15 METAR KIDI 170315Z AUTO 31007G15KT 8SM BKN012 OVC025 M10/M13 A3043 RMK A01 =
2018-01-16 21:55 METAR KIDI 170255Z AUTO 30006G12KT 4SM BR OVC012 M09/M11 A3042 RMK A01 =
2018-01-16 21:35 METAR KIDI 170235Z AUTO 29005KT 5SM BR FEW008 BKN012 OVC017 M09/M11 A3042 RMK
                 A01 =
2018-01-16 21:15 METAR KIDI 170215Z AUTO 30005KT 5SM BR BKN014 OVC024 M09/M11 A3042 RMK A01 =
2018-01-16 20:55 METAR KIDI 170155Z AUTO VRB05G13KT 2SM BR FEW009 BKN013 OVC023 M09/M10 A3042 RMK
                 A01 =
2018-01-16 20:35 METAR KIDI 170135Z AUTO 29006KT 2SM BR FEW004 BKN010 OVC020 M08/M09 A3041 RMK
                 A01 =
2018-01-16 20:15 METAR KIDI 170115Z AUTO 29005G10KT 2SM BR BKN009 BKN014 OVC019 M08/M09 A3040 RMK
                 A01 =
2018-01-16 19:55 METAR KIDI 170055Z AUTO 30008G15KT 1 3/4SM BR SCT004 BKN010 OVC014 M07/M08 A3039
                 RMK A01 =
2018-01-16 19:35 METAR KIDI 170035Z AUTO 29005KT 1 1/2SM BR SCT004 BKN010 OVC014 M06/M07 A3038
                 RMK A01 =
2018-01-16 19:15 METAR KIDI 170015Z AUTO 31008KT 1 3/4SM BR SCT004 OVC009 M05/M06 A3037 RMK A01 =
2018-01-16 18:55 METAR KIDI 162355Z AUTO 25010KT 2SM BR FEW004 BKN009 OVC014 M05/M05 A3036 RMK
                 A01 =
2018-01-16 18:35 METAR KIDI 162335Z AUTO 26007KT 1 3/4SM BR SCT003 BKN007 OVC029 M04/M05 A3036
                 RMK A01 =
2018-01-16 18:15 METAR KIDI 162315Z AUTO 25004KT 1 1/2SM BR BKN003 BKN007 OVC027 M04/M05 A3035
                 RMK A01 =
2018-01-16 17:55 METAR KIDI 162255Z AUTO 25006KT 1 3/4SM BR BKN004 BKN020 OVC026 M04/M05 A3035
                 RMK A01 =
2018-01-16 17:35 METAR KIDI 162235Z AUTO 28007G13KT 1SM BR OVC004 M04/M04 A3034 RMK A01 =
2018-01-16 17:15 METAR KIDI 162215Z AUTO 31008G15KT 1/2SM FZFG OVC004 M03/M03 A3033 RMK A01 =
2018-01-16 16:55 METAR KIDI 162155Z AUTO 27006KT 1/2SM BR OVC006 M02/M03 A3033 RMK A01 =
2018-01-16 16:35 METAR KIDI 162135Z AUTO 24005KT 3/4SM BR OVC006 M02/M03 A3033 RMK A01 =
2018-01-16 16:15 METAR KIDI 162115Z AUTO 21004KT 1SM BR BKN006 BKN012 OVC027 M02/M03 A3033 RMK
                 A01 =
2018-01-16 15:55 METAR KIDI 162055Z AUTO 21004KT 1SM BR BKN004 BKN012 OVC028 M02/M03 A3032 RMK
                 A01 =
2018-01-16 15:35 METAR KIDI 162035Z AUTO 21004KT 3/4SM BR OVC005 M02/M03 A3032 RMK A01 =
2018-01-16 15:15 METAR KIDI 162015Z AUTO 00000KT 3/4SM BR OVC004 M02/M03 A3032 RMK A01 =
2018-01-16 14:55 METAR KIDI 161955Z AUTO 00000KT 1 1/4SM BR SCT005 BKN009 OVC024 M02/M03 A3032
                 RMK A01 =
2018-01-16 14:35 METAR KIDI 161935Z AUTO 00000KT 1 1/2SM BR BKN009 BKN013 OVC022 M02/M03 A3032
                 RMK A01 =
2018-01-16 14:15 METAR KIDI 161915Z AUTO 00000KT 1 1/2SM BR SCT011 BKN020 OVC025 M02/M03 A3032
                 RMK A01 =
2018-01-16 13:55 METAR KIDI 161855Z AUTO 00000KT 1 1/2SM BR SCT012 BKN019 OVC026 M02/M03 A3032
                 RMK A01 =
2018-01-16 13:35 METAR KIDI 161835Z AUTO 27004KT 1 1/4SM BR OVC018 M02/M03 A3033 RMK A01 =
2018-01-16 13:15 METAR KIDI 161815Z AUTO 26007KT 1 3/4SM BR OVC016 M02/M04 A3033 RMK A01 =
2018-01-16 12:55 METAR KIDI 161755Z AUTO 26006KT 7SM OVC015 M02/M03 A3034 RMK A01 =
2018-01-16 12:35 METAR KIDI 161735Z AUTO 24004KT 9SM BKN012 OVC049 M02/M03 A3035 RMK A01 =
2018-01-16 12:15 METAR KIDI 161715Z AUTO 23003KT 5SM BR FEW012 FEW029 BKN050 M02/M03 A3036 RMK
                 A01 =
2018-01-16 11:55 METAR KIDI 161655Z AUTO 23005KT 2SM BR FEW027 M02/M03 A3036 RMK A01 =
2018-01-16 11:35 METAR KIDI 161635Z AUTO 22004KT 1 3/4SM BR SCT010 BKN027 BKN033 M02/M03 A3038
                 RMK A01 =
2018-01-16 11:15 METAR KIDI 161615Z AUTO 22004KT 3SM BR BKN028 BKN038 M02/M03 A3038 RMK A01 =
2018-01-16 10:55 METAR KIDI 161555Z AUTO 21005KT 3SM BR FEW011 FEW021 SCT029 M02/M03 A3038 RMK
                 A01 =
2018-01-16 10:35 METAR KIDI 161535Z AUTO 21004KT 2 1/2SM BR FEW011 FEW021 BKN030 M02/M03 A3039
                 RMK A01 =
2018-01-16 10:15 METAR KIDI 161515Z AUTO 22005KT 1 1/2SM BR SCT008 BKN024 OVC030 M03/M03 A3039
                 RMK A01 =
2018-01-16 09:55 METAR KIDI 161455Z AUTO 22004KT 3SM BR SCT007 BKN025 OVC030 M03/M03 A3039 RMK
                 A01 =
2018-01-16 09:35 METAR KIDI 161435Z AUTO 00000KT 5SM BR OVC007 M03/M04 A3038 RMK A01 =
2018-01-16 09:15 METAR KIDI 161415Z AUTO 00000KT 4SM BR OVC007 M03/M04 A3038 RMK A01 =
2018-01-16 08:55 METAR KIDI 161355Z AUTO 00000KT 3SM BR OVC008 M03/M04 A3038 RMK A01 =
2018-01-16 08:35 METAR KIDI 161335Z AUTO 22004KT 3SM BR BKN011 OVC032 M04/M04 A3038 RMK A01 =
2018-01-16 08:15 METAR KIDI 161315Z AUTO 00000KT 3SM BR FEW013 BKN031 OVC037 M04/M04 A3037 RMK
                 A01 =
2018-01-16 07:55 METAR KIDI 161255Z AUTO 22003KT 2 1/2SM BR SCT027 OVC036 M04/M04 A3037 RMK A01 =
2018-01-16 07:35 METAR KIDI 161235Z AUTO 23003KT 5SM BR FEW006 SCT022 OVC036 M04/M04 A3038 RMK
                 A01 =
2018-01-16 07:15 METAR KIDI 161215Z AUTO 22004KT 4SM BR FEW006 SCT010 BKN016 M04/M04 A3037 RMK
                 A01 =
2018-01-16 06:55 METAR KIDI 161155Z AUTO 24004KT 2 1/2SM BR SCT004 BKN010 OVC025 M03/M04 A3037
                 RMK A01 =
2018-01-16 06:35 METAR KIDI 161135Z AUTO 23005KT 1 1/4SM BR BKN003 OVC024 M03/M04 A3037 RMK A01 =

Support USWX by starting your Amazon purchase here.